Time;durP1;ratioP1;P1;durP2;ratioP2;P2;SDS_P1;SDS_P2;PMS_P1;PMS_P2;Temp;Humidity;BMP_temperature;BMP_pressure;BME280_temperature;BME280_humidity;BME280_pressure;Samples;Min_cycle;Max_cycle;Signal;HPM_P1;HPM_P2
2022/03/24 00:00:24;;;;;;;12.00;7.20;;;1.40;99.90;;;;;;5053834;28;20025;-33
2022/03/24 00:02:50;;;;;;;9.05;5.90;;;1.60;99.90;;;;;;5057089;27;20032;-35
2022/03/24 00:05:16;;;;;;;9.13;5.68;;;1.70;99.90;;;;;;5060393;28;21920;-34
2022/03/24 00:07:41;;;;;;;11.50;6.80;;;1.80;99.90;;;;;;5055614;28;20038;-33
2022/03/24 00:10:08;;;;;;;9.73;5.85;;;1.90;99.90;;;;;;5055227;28;20032;-34
2022/03/24 00:12:37;;;;;;;14.30;7.22;;;1.90;99.90;;;;;;5057700;28;20616;-35
2022/03/24 00:15:04;;;;;;;7.32;5.00;;;1.80;99.90;;;;;;5056918;28;20111;-35
2022/03/24 00:17:30;;;;;;;10.80;6.47;;;1.80;99.90;;;;;;5059633;28;20028;-33
2022/03/24 00:19:56;;;;;;;12.60;6.03;;;1.60;99.90;;;;;;5059568;28;20028;-33
2022/03/24 00:22:23;;;;;;;10.35;6.28;;;1.30;99.90;;;;;;5051694;28;20122;-33
2022/03/24 00:24:48;;;;;;;11.57;5.32;;;1.20;99.90;;;;;;5054528;28;20673;-33
2022/03/24 00:27:15;;;;;;;13.32;6.40;;;1.20;99.90;;;;;;5054482;28;20036;-33
2022/03/24 00:29:41;;;;;;;8.43;5.60;;;1.20;99.90;;;;;;5058935;28;20044;-33
2022/03/24 00:32:08;;;;;;;13.40;7.15;;;1.20;99.90;;;;;;5056015;28;20405;-33
2022/03/24 00:34:34;;;;;;;10.73;6.22;;;1.20;99.90;;;;;;5059524;28;20492;-34
2022/03/24 00:36:59;;;;;;;7.80;5.50;;;1.10;99.90;;;;;;5052129;28;20032;-33
2022/03/24 00:39:25;;;;;;;13.10;7.13;;;0.90;99.90;;;;;;5056494;28;20033;-34
2022/03/24 00:41:50;;;;;;;11.25;6.30;;;0.80;99.90;;;;;;5054110;28;20028;-33
2022/03/24 00:44:18;;;;;;;11.65;5.82;;;0.90;99.90;;;;;;5058033;28;20037;-34
2022/03/24 00:46:44;;;;;;;9.77;6.53;;;1.10;99.90;;;;;;5054431;28;20033;-33
2022/03/24 00:49:09;;;;;;;13.32;6.03;;;1.30;99.90;;;;;;5060223;28;20094;-33
2022/03/24 00:51:35;;;;;;;10.98;6.20;;;1.30;99.90;;;;;;5054100;28;20060;-34
2022/03/24 00:54:01;;;;;;;12.50;7.05;;;1.20;99.90;;;;;;5056865;28;20051;-33
2022/03/24 00:56:26;;;;;;;6.90;4.82;;;1.10;99.90;;;;;;5054067;28;21642;-33
2022/03/24 00:58:52;;;;;;;8.93;5.70;;;1.00;99.90;;;;;;5058196;28;20033;-34
2022/03/24 01:01:17;;;;;;;11.40;5.82;;;1.10;99.90;;;;;;5053264;27;20139;-33
2022/03/24 01:03:43;;;;;;;10.65;6.25;;;0.90;99.90;;;;;;5056544;28;20754;-34
2022/03/24 01:06:10;;;;;;;11.23;6.72;;;1.00;99.90;;;;;;5055124;28;20036;-34
2022/03/24 01:08:36;;;;;;;9.02;4.97;;;1.10;99.90;;;;;;5055758;28;20032;-34
2022/03/24 01:11:05;;;;;;;9.45;5.95;;;0.80;99.90;;;;;;5054451;28;20036;-33
2022/03/24 01:13:34;;;;;;;9.75;6.10;;;0.70;99.90;;;;;;5057792;28;20033;-33
2022/03/24 01:16:01;;;;;;;11.95;6.30;;;0.60;99.90;;;;;;5056123;28;20020;-33
2022/03/24 01:18:28;;;;;;;8.43;5.30;;;0.80;99.90;;;;;;5054247;28;20032;-33
2022/03/24 01:20:54;;;;;;;10.77;6.88;;;0.90;99.90;;;;;;5058205;28;20082;-33
2022/03/24 01:23:23;;;;;;;9.00;5.50;;;0.90;99.90;;;;;;5052222;28;20326;-33
2022/03/24 01:25:49;;;;;;;;;;;1.00;99.90;;;;;;5056426;28;20032;-34
2022/03/24 01:28:15;;;;;;;8.95;4.93;;;0.90;99.90;;;;;;5055782;28;19916;-34
2022/03/24 01:30:41;;;;;;;8.55;6.13;;;0.90;99.90;;;;;;5060752;28;20032;-33
2022/03/24 01:33:08;;;;;;;12.40;6.15;;;0.90;99.90;;;;;;5054800;28;20150;-34
2022/03/24 01:35:34;;;;;;;7.65;5.57;;;0.80;99.90;;;;;;5062145;28;20563;-34
2022/03/24 01:38:00;;;;;;;8.48;5.85;;;0.50;99.90;;;;;;5062873;28;20032;-33
2022/03/24 01:40:26;;;;;;;9.90;5.70;;;0.30;99.90;;;;;;5056671;28;20048;-34
2022/03/24 01:42:51;;;;;;;7.70;6.05;;;0.40;99.90;;;;;;5056541;28;20482;-34
2022/03/24 01:45:17;;;;;;;11.50;5.88;;;0.50;99.90;;;;;;5061082;28;20032;-35
2022/03/24 01:47:43;;;;;;;13.32;6.30;;;0.70;99.90;;;;;;5060774;28;20549;-33
2022/03/24 01:50:11;;;;;;;10.10;5.85;;;0.70;99.90;;;;;;5055283;28;20064;-33
2022/03/24 01:52:37;;;;;;;10.00;7.47;;;0.70;99.90;;;;;;5062696;28;20075;-33
2022/03/24 01:55:05;;;;;;;11.25;5.78;;;0.70;99.90;;;;;;5055663;28;20033;-33
2022/03/24 01:57:31;;;;;;;9.25;6.18;;;0.60;99.90;;;;;;5061445;28;20029;-33
2022/03/24 01:59:59;;;;;;;12.68;6.32;;;0.70;99.90;;;;;;5062125;28;20055;-34
2022/03/24 02:02:24;;;;;;;7.85;4.68;;;0.50;99.90;;;;;;5058031;28;20386;-33
2022/03/24 02:04:50;;;;;;;10.13;5.55;;;0.20;99.90;;;;;;5056914;28;20032;-33
2022/03/24 02:07:16;;;;;;;9.88;5.60;;;0.10;99.90;;;;;;5060646;28;20473;-34
2022/03/24 02:09:42;;;;;;;14.30;6.47;;;0.10;99.90;;;;;;5058883;28;20047;-34
2022/03/24 02:12:10;;;;;;;10.80;6.60;;;0.20;99.90;;;;;;5059755;28;20064;-33
2022/03/24 02:14:37;;;;;;;16.00;6.25;;;0.20;99.90;;;;;;5061358;28;20480;-33
2022/03/24 02:17:03;;;;;;;6.50;4.05;;;0.10;99.90;;;;;;5059401;28;20028;-34
2022/03/24 02:19:30;;;;;;;10.40;6.15;;;-0.10;99.90;;;;;;5060027;28;20803;-34
2022/03/24 02:22:06;;;;;;;11.80;6.40;;;-0.20;99.90;;;;;;5054214;28;20035;-35
2022/03/24 02:24:32;;;;;;;6.97;5.07;;;-0.20;99.90;;;;;;5061474;28;20036;-34
2022/03/24 02:26:59;;;;;;;13.25;7.28;;;-0.10;99.90;;;;;;5057647;28;20024;-34
2022/03/24 02:29:25;;;;;;;7.28;4.82;;;-0.10;99.90;;;;;;5056806;28;20082;-34
2022/03/24 02:31:52;;;;;;;10.50;6.63;;;-0.10;99.90;;;;;;5058008;28;20040;-33
2022/03/24 02:34:40;;;;;;;10.70;6.18;;;0.00;99.90;;;;;;5061412;28;20036;-36
2022/03/24 02:37:22;;;;;;;11.48;6.43;;;0.00;99.90;;;;;;5052770;28;20036;-33
2022/03/24 02:39:50;;;;;;;7.32;4.53;;;0.00;99.90;;;;;;5056037;28;20056;-34
2022/03/24 02:42:20;;;;;;;14.05;6.30;;;-0.40;99.90;;;;;;5061157;28;20164;-33
2022/03/24 02:44:49;;;;;;;11.73;7.07;;;-0.40;99.90;;;;;;5050993;28;20058;-34
2022/03/24 02:47:16;;;;;;;10.07;5.78;;;-0.20;99.90;;;;;;5057922;28;20067;-34
2022/03/24 02:49:44;;;;;;;12.43;5.97;;;-0.20;99.90;;;;;;5059869;28;20111;-34
2022/03/24 02:52:10;;;;;;;13.13;6.97;;;-0.30;99.90;;;;;;5053773;28;20047;-34
2022/03/24 02:54:36;;;;;;;8.93;5.60;;;-0.10;99.90;;;;;;5050514;28;20374;-35
2022/03/24 02:57:03;;;;;;;9.60;6.20;;;0.00;99.90;;;;;;5058019;28;20441;-33
2022/03/24 02:59:29;;;;;;;11.73;5.72;;;0.00;99.90;;;;;;5054512;28;20040;-33
2022/03/24 03:02:16;;;;;;;10.10;5.72;;;0.00;99.90;;;;;;5056716;28;20169;-33
2022/03/24 03:04:44;;;;;;;7.70;5.60;;;0.00;99.90;;;;;;5054447;28;20028;-34
2022/03/24 03:07:10;;;;;;;4.88;3.75;;;-0.30;99.90;;;;;;5054168;28;20679;-34
2022/03/24 03:09:38;;;;;;;7.10;5.20;;;-0.70;99.90;;;;;;5061841;28;20681;-34
2022/03/24 03:12:05;;;;;;;7.60;6.70;;;-0.80;99.90;;;;;;5051527;28;20028;-33
2022/03/24 03:14:31;;;;;;;9.10;5.70;;;-0.70;99.90;;;;;;5056386;28;20151;-33
2022/03/24 03:16:58;;;;;;;12.75;6.28;;;-0.70;99.90;;;;;;5055241;28;20029;-35
2022/03/24 03:19:24;;;;;;;13.18;6.20;;;-0.60;99.90;;;;;;5057400;28;20033;-33
2022/03/24 03:21:50;;;;;;;9.43;6.38;;;-0.60;99.90;;;;;;5055719;28;20041;-35
2022/03/24 03:24:17;;;;;;;13.35;6.00;;;-0.60;99.90;;;;;;5055206;28;20544;-34
2022/03/24 03:26:44;;;;;;;8.68;5.53;;;-0.40;99.90;;;;;;5056959;28;20543;-33
2022/03/24 03:29:10;;;;;;;8.13;5.75;;;-0.50;99.90;;;;;;5057115;28;20048;-35
2022/03/24 03:31:36;;;;;;;10.65;5.82;;;-0.60;99.90;;;;;;5063586;28;20070;-34
2022/03/24 03:34:03;;;;;;;8.75;6.53;;;-0.60;99.90;;;;;;5053882;28;20040;-34
2022/03/24 03:36:30;;;;;;;8.95;6.05;;;-0.60;99.90;;;;;;5056694;28;20068;-33
2022/03/24 03:38:56;;;;;;;9.20;5.82;;;-0.50;99.90;;;;;;5059353;28;20519;-34
2022/03/24 03:41:22;;;;;;;9.63;5.93;;;-0.50;99.90;;;;;;5058338;28;20028;-33
2022/03/24 03:43:48;;;;;;;11.07;6.20;;;-0.50;99.90;;;;;;5053239;28;20051;-34
2022/03/24 03:46:15;;;;;;;8.95;6.00;;;-0.40;99.90;;;;;;5052796;28;20032;-33
2022/03/24 03:48:41;;;;;;;6.75;4.88;;;-0.50;99.90;;;;;;5055821;28;20036;-34
2022/03/24 03:51:10;;;;;;;6.40;4.57;;;-0.70;99.90;;;;;;5053406;28;20033;-33
2022/03/24 03:53:37;;;;;;;9.05;5.72;;;-1.00;99.90;;;;;;5055561;28;20020;-36
2022/03/24 03:56:04;;;;;;;12.23;6.32;;;-1.20;99.90;;;;;;5058664;28;20094;-35
2022/03/24 03:58:30;;;;;;;11.57;5.68;;;-1.00;99.90;;;;;;5055538;28;20051;-34
2022/03/24 04:00:56;;;;;;;11.98;6.60;;;-1.00;99.90;;;;;;5054172;28;20785;-34
2022/03/24 04:03:26;;;;;;;11.02;6.78;;;-1.10;99.90;;;;;;5054976;28;20762;-34
2022/03/24 04:05:59;;;;;;;8.60;4.18;;;-1.00;99.90;;;;;;5051376;28;20043;-34
2022/03/24 04:08:27;;;;;;;8.63;6.57;;;-0.90;99.90;;;;;;5057619;28;20077;-34
2022/03/24 04:10:53;;;;;;;6.63;4.93;;;-0.80;99.90;;;;;;5055807;28;20032;-33
2022/03/24 04:13:20;;;;;;;17.38;5.28;;;-0.70;99.90;;;;;;5054199;28;20451;-33
2022/03/24 04:15:46;;;;;;;7.40;4.55;;;-0.90;99.90;;;;;;5072344;28;20036;-34
2022/03/24 04:18:12;;;;;;;9.57;6.40;;;-1.20;99.90;;;;;;5055113;28;20021;-33
2022/03/24 04:20:39;;;;;;;9.13;6.63;;;-1.30;99.90;;;;;;5055830;28;20469;-34
2022/03/24 04:23:05;;;;;;;11.23;6.18;;;-1.30;99.90;;;;;;5054156;28;20059;-34
2022/03/24 04:25:33;;;;;;;5.50;4.32;;;-1.20;99.90;;;;;;5058290;28;20090;-34
2022/03/24 04:27:59;;;;;;;8.98;5.95;;;-1.30;99.90;;;;;;5055792;28;20107;-33
2022/03/24 04:30:26;;;;;;;11.80;6.03;;;-1.30;99.90;;;;;;5051226;28;20032;-34
2022/03/24 04:32:52;;;;;;;10.40;6.15;;;-1.40;99.90;;;;;;5051851;28;20036;-34
2022/03/24 04:35:18;;;;;;;11.75;5.88;;;-1.40;99.90;;;;;;5061784;28;20500;-35
2022/03/24 04:37:44;;;;;;;8.02;5.20;;;-1.30;99.90;;;;;;5065319;28;20123;-34
2022/03/24 04:40:11;;;;;;;10.35;6.50;;;-1.20;99.90;;;;;;5061471;28;20477;-34
2022/03/24 04:42:37;;;;;;;8.52;5.00;;;-1.20;99.90;;;;;;5054648;28;20028;-33
2022/03/24 04:45:04;;;;;;;7.75;4.57;;;-1.40;99.90;;;;;;5062774;28;20031;-33
2022/03/24 04:47:29;;;;;;;22.25;5.65;;;-1.50;99.90;;;;;;5055514;28;20342;-35
2022/03/24 04:49:55;;;;;;;8.38;5.18;;;-1.60;99.90;;;;;;5061407;28;21018;-34
2022/03/24 04:52:22;;;;;;;8.45;6.07;;;-1.50;99.90;;;;;;5057282;28;20024;-34
2022/03/24 04:54:48;;;;;;;5.93;3.75;;;-1.30;99.90;;;;;;5058753;28;20405;-34
2022/03/24 04:57:13;;;;;;;11.00;5.85;;;-1.20;99.90;;;;;;5056986;28;20024;-35
2022/03/24 04:59:39;;;;;;;8.43;5.93;;;-1.30;99.90;;;;;;5067251;28;20024;-34
2022/03/24 05:02:06;;;;;;;8.57;5.53;;;-1.20;99.90;;;;;;5055060;28;20021;-34
2022/03/24 05:04:32;;;;;;;8.45;6.15;;;-1.10;99.90;;;;;;5054021;28;20382;-35
2022/03/24 05:06:58;;;;;;;6.13;5.55;;;-1.00;99.90;;;;;;5058200;28;20040;-34
2022/03/24 05:09:24;;;;;;;10.90;6.28;;;-1.00;99.90;;;;;;5053876;28;20025;-34
2022/03/24 05:11:49;;;;;;;9.85;5.97;;;-1.00;99.90;;;;;;5052799;28;20079;-33
2022/03/24 05:14:15;;;;;;;7.18;5.60;;;-1.00;99.90;;;;;;5063073;28;20394;-35
2022/03/24 05:16:40;;;;;;;16.42;5.57;;;-1.00;99.90;;;;;;5053006;28;20747;-34
2022/03/24 05:19:06;;;;;;;19.50;7.75;;;-1.10;99.90;;;;;;5051316;28;20031;-34
2022/03/24 05:21:32;;;;;;;7.13;4.65;;;-1.10;99.90;;;;;;5060415;28;20111;-34
2022/03/24 05:23:59;;;;;;;7.97;4.15;;;-1.10;99.90;;;;;;5058375;28;20044;-34
2022/03/24 05:26:25;;;;;;;7.45;5.30;;;-1.30;99.90;;;;;;5054914;28;20432;-34
2022/03/24 05:28:51;;;;;;;6.45;4.88;;;-1.40;99.90;;;;;;5052728;28;20044;-34
2022/03/24 05:31:18;;;;;;;8.32;4.95;;;-1.50;99.90;;;;;;5058674;28;20032;-34
2022/03/24 05:33:44;;;;;;;8.93;4.90;;;-1.70;99.90;;;;;;5058549;28;20037;-33
2022/03/24 05:36:10;;;;;;;9.07;5.85;;;-1.90;99.90;;;;;;5053170;28;20489;-34
2022/03/24 05:38:36;;;;;;;10.05;6.80;;;-2.00;99.90;;;;;;5058135;28;20101;-33
2022/03/24 05:41:02;;;;;;;14.30;6.18;;;-1.90;99.90;;;;;;5061213;28;20044;-33
2022/03/24 05:43:29;;;;;;;10.15;5.53;;;-1.70;99.90;;;;;;5055400;28;20549;-34
2022/03/24 05:45:54;;;;;;;9.80;4.97;;;-1.50;99.90;;;;;;5055796;28;20063;-33
2022/03/24 05:48:20;;;;;;;8.05;5.80;;;-1.60;99.90;;;;;;5051884;28;20115;-34
2022/03/24 05:50:46;;;;;;;12.32;7.55;;;-1.60;99.90;;;;;;5060808;28;20040;-34
2022/03/24 05:53:12;;;;;;;12.13;6.38;;;-1.50;99.90;;;;;;5058039;28;20040;-34
2022/03/24 05:55:38;;;;;;;11.43;5.85;;;-1.40;99.90;;;;;;5055536;28;20029;-34
2022/03/24 05:58:04;;;;;;;9.00;6.28;;;-1.40;99.90;;;;;;5053076;28;20035;-33
2022/03/24 06:00:31;;;;;;;9.07;5.15;;;-1.30;99.90;;;;;;5055379;28;20040;-34
2022/03/24 06:02:57;;;;;;;11.73;5.05;;;-1.20;99.90;;;;;;5051548;28;20049;-34
2022/03/24 06:05:25;;;;;;;10.90;6.07;;;-1.20;99.90;;;;;;5060160;28;20040;-33
2022/03/24 06:07:51;;;;;;;14.50;7.33;;;-1.10;99.90;;;;;;5055368;28;20042;-35
2022/03/24 06:10:17;;;;;;;10.70;6.55;;;-1.00;99.90;;;;;;5063260;28;20112;-34
2022/03/24 06:12:42;;;;;;;10.65;6.40;;;-0.90;99.90;;;;;;5054677;28;20040;-34
2022/03/24 06:15:08;;;;;;;17.30;5.55;;;-0.80;99.90;;;;;;5059001;28;20028;-34
2022/03/24 06:17:35;;;;;;;12.77;6.00;;;-0.80;99.90;;;;;;5058887;28;20038;-34
2022/03/24 06:20:02;;;;;;;8.52;5.78;;;-0.70;99.90;;;;;;5057887;28;20079;-34
2022/03/24 06:22:28;;;;;;;10.13;6.45;;;-0.60;99.90;;;;;;5056553;28;20418;-35
2022/03/24 06:24:54;;;;;;;10.88;6.10;;;-0.60;99.90;;;;;;5059455;28;20534;-34
2022/03/24 06:27:20;;;;;;;11.68;6.75;;;-0.50;99.90;;;;;;5057442;28;20028;-34
2022/03/24 06:29:47;;;;;;;21.15;10.68;;;-0.30;99.90;;;;;;5059255;28;20852;-33
2022/03/24 06:32:13;;;;;;;15.93;9.30;;;-0.20;99.90;;;;;;5058710;28;20572;-36
2022/03/24 06:34:39;;;;;;;13.07;6.82;;;-0.10;99.90;;;;;;5057668;28;20039;-34
2022/03/24 06:37:04;;;;;;;14.48;7.53;;;0.10;99.90;;;;;;5059730;28;20485;-36
2022/03/24 06:39:30;;;;;;;13.15;7.10;;;0.20;99.90;;;;;;5060444;28;20052;-36
2022/03/24 06:41:56;;;;;;;22.35;9.48;;;0.30;99.90;;;;;;5055423;28;20604;-34
2022/03/24 06:44:21;;;;;;;19.83;10.35;;;0.50;99.90;;;;;;5060539;28;20032;-33
2022/03/24 06:46:48;;;;;;;13.48;9.10;;;0.70;99.90;;;;;;5063989;28;20619;-34
2022/03/24 06:49:15;;;;;;;20.27;10.10;;;0.90;99.90;;;;;;5057050;28;20362;-34
2022/03/24 06:51:41;;;;;;;21.27;9.68;;;1.10;99.90;;;;;;5056155;28;20048;-35
2022/03/24 06:54:06;;;;;;;10.48;7.38;;;1.30;99.90;;;;;;5058156;28;20036;-37
2022/03/24 06:56:32;;;;;;;17.13;8.43;;;1.40;99.90;;;;;;5061125;28;20045;-36
2022/03/24 06:58:58;;;;;;;17.98;9.00;;;1.60;99.90;;;;;;5064452;28;20051;-35
2022/03/24 07:01:24;;;;;;;11.38;6.60;;;1.70;99.90;;;;;;5052769;28;20033;-34
2022/03/24 07:03:50;;;;;;;16.73;9.43;;;1.80;99.90;;;;;;5058945;28;20036;-34
2022/03/24 07:06:16;;;;;;;15.30;7.97;;;1.90;99.90;;;;;;5064759;28;20729;-34
2022/03/24 07:08:41;;;;;;;14.13;7.50;;;2.10;99.90;;;;;;5058354;28;20146;-34
2022/03/24 07:11:08;;;;;;;10.45;7.13;;;2.20;99.90;;;;;;5061797;28;22179;-35
2022/03/24 07:13:34;;;;;;;13.65;6.95;;;2.30;99.90;;;;;;5063354;28;20024;-33
2022/03/24 07:16:00;;;;;;;12.70;8.00;;;2.40;99.90;;;;;;5057891;28;20032;-33
2022/03/24 07:18:25;;;;;;;13.25;8.02;;;2.50;99.90;;;;;;5052015;28;20028;-33
2022/03/24 07:20:51;;;;;;;12.60;7.13;;;2.50;99.90;;;;;;5057773;28;20035;-34
2022/03/24 07:23:17;;;;;;;17.42;8.52;;;2.70;99.90;;;;;;5057779;28;20307;-33
2022/03/24 07:25:44;;;;;;;19.08;10.30;;;2.70;99.90;;;;;;5056015;28;20719;-34
2022/03/24 07:28:12;;;;;;;12.73;7.43;;;2.90;99.90;;;;;;5054728;28;20097;-33
2022/03/24 07:30:38;;;;;;;17.60;8.48;;;3.00;99.90;;;;;;5056876;28;21850;-33
2022/03/24 07:33:04;;;;;;;18.98;9.40;;;3.10;99.90;;;;;;5058838;28;20515;-33
2022/03/24 07:35:33;;;;;;;14.65;7.88;;;3.20;99.90;;;;;;5053178;28;20116;-33
2022/03/24 07:37:59;;;;;;;19.73;9.38;;;3.40;99.90;;;;;;5050620;28;20119;-34
2022/03/24 07:40:26;;;;;;;17.75;9.73;;;3.50;99.90;;;;;;5059299;28;20021;-33
2022/03/24 07:42:53;;;;;;;14.60;9.68;;;3.70;99.90;;;;;;5053254;28;20033;-33
2022/03/24 07:45:20;;;;;;;18.02;9.32;;;4.00;99.90;;;;;;5055996;28;20055;-33
2022/03/24 07:48:07;;;;;;;20.48;10.07;;;4.20;99.90;;;;;;5062780;28;20044;-33
2022/03/24 07:50:33;;;;;;;18.58;8.95;;;4.40;99.90;;;;;;5054954;28;20052;-34
2022/03/24 07:53:15;;;;;;;15.15;9.15;;;4.80;99.90;;;;;;5058885;28;20055;-33
2022/03/24 07:55:43;;;;;;;18.23;8.60;;;5.10;99.90;;;;;;5057080;28;20031;-35
2022/03/24 07:58:14;;;;;;;18.45;9.27;;;5.40;99.90;;;;;;5055419;28;20024;-34
2022/03/24 08:00:40;;;;;;;16.60;8.48;;;5.60;98.90;;;;;;5056926;28;21403;-34
2022/03/24 08:03:14;;;;;;;20.42;9.95;;;5.90;98.10;;;;;;5050614;28;20381;-35
2022/03/24 08:05:41;;;;;;;21.30;9.38;;;6.20;97.30;;;;;;5054665;28;20031;-34
2022/03/24 08:08:10;;;;;;;24.77;10.75;;;6.40;96.50;;;;;;5057501;28;20154;-34
2022/03/24 08:10:41;;;;;;;19.30;10.15;;;6.60;97.60;;;;;;5058620;28;20025;-34
2022/03/24 08:13:08;;;;;;;19.38;9.93;;;6.80;95.30;;;;;;5055905;28;20039;-35
2022/03/24 08:15:35;;;;;;;16.83;8.52;;;7.00;95.00;;;;;;5082370;28;20050;-36
2022/03/24 08:18:01;;;;;;;15.73;8.90;;;7.20;93.40;;;;;;5057069;28;20102;-34
2022/03/24 08:20:27;;;;;;;23.60;10.25;;;7.40;93.30;;;;;;5052310;28;20037;-34
2022/03/24 08:22:53;;;;;;;20.73;9.68;;;7.60;92.30;;;;;;5052592;28;20086;-36
2022/03/24 08:25:19;;;;;;;21.98;10.60;;;7.90;93.50;;;;;;5054619;28;20032;-35
2022/03/24 08:27:45;;;;;;;13.70;7.57;;;8.00;92.00;;;;;;5070409;28;20036;-34
2022/03/24 08:30:12;;;;;;;17.90;9.32;;;8.20;90.20;;;;;;5056818;28;20513;-33
2022/03/24 08:32:39;;;;;;;19.23;9.32;;;8.30;91.90;;;;;;5052931;28;20048;-36
2022/03/24 08:35:05;;;;;;;17.25;8.45;;;8.60;91.20;;;;;;5052857;28;20035;-35
2022/03/24 08:37:30;;;;;;;16.75;9.75;;;8.70;82.30;;;;;;5051966;28;20020;-33
2022/03/24 08:39:56;;;;;;;19.75;9.95;;;9.00;89.40;;;;;;5056630;28;20735;-34
2022/03/24 08:42:22;;;;;;;18.63;9.82;;;9.20;81.50;;;;;;5060130;28;20028;-33
2022/03/24 08:44:47;;;;;;;19.23;9.75;;;9.50;87.70;;;;;;5054507;28;20041;-34
2022/03/24 08:47:13;;;;;;;18.95;9.95;;;9.50;77.10;;;;;;5055878;28;20035;-34
2022/03/24 08:49:39;;;;;;;19.08;10.02;;;9.80;76.00;;;;;;5054183;28;20035;-34
2022/03/24 08:52:04;;;;;;;19.83;10.10;;;10.00;75.20;;;;;;5059533;28;20071;-37
2022/03/24 08:54:30;;;;;;;18.67;9.80;;;10.20;70.00;;;;;;5057507;28;20036;-33
2022/03/24 08:56:56;;;;;;;28.17;11.02;;;10.40;69.70;;;;;;5053997;28;20029;-34
2022/03/24 08:59:22;;;;;;;20.88;9.73;;;10.50;64.70;;;;;;5057797;28;20102;-33
2022/03/24 09:01:47;;;;;;;20.95;10.95;;;10.60;58.10;;;;;;5056202;28;20044;-33
2022/03/24 09:04:14;;;;;;;22.48;10.38;;;10.80;60.60;;;;;;5054161;28;20029;-33
2022/03/24 09:06:40;;;;;;;19.27;9.68;;;11.10;62.80;;;;;;5058179;28;20064;-36
2022/03/24 09:09:06;;;;;;;21.90;10.45;;;11.30;59.50;;;;;;5053862;28;20017;-33
2022/03/24 09:11:32;;;;;;;18.10;9.85;;;11.40;57.00;;;;;;5058934;28;20022;-33
2022/03/24 09:13:58;;;;;;;18.73;10.27;;;11.60;58.80;;;;;;5056865;28;20121;-34
2022/03/24 09:16:24;;;;;;;25.25;12.10;;;11.80;55.00;;;;;;5057612;28;20047;-33
2022/03/24 09:18:50;;;;;;;22.65;11.27;;;11.90;57.80;;;;;;5054321;28;20149;-35
2022/03/24 09:21:16;;;;;;;19.95;10.55;;;12.00;52.60;;;;;;5058129;28;20095;-33
2022/03/24 09:23:43;;;;;;;21.52;10.35;;;11.80;52.50;;;;;;5054732;28;20056;-34
2022/03/24 09:26:09;;;;;;;20.40;11.40;;;11.90;54.00;;;;;;5057562;28;20102;-37
2022/03/24 09:28:35;;;;;;;20.00;10.98;;;12.00;57.80;;;;;;5056395;28;20048;-33
2022/03/24 09:31:01;;;;;;;19.13;10.27;;;12.20;54.50;;;;;;5053030;28;20404;-33
2022/03/24 09:33:26;;;;;;;19.15;10.65;;;12.60;53.70;;;;;;5058506;28;20051;-33
2022/03/24 09:35:52;;;;;;;20.75;10.65;;;13.00;54.60;;;;;;5056454;28;20730;-33
2022/03/24 09:38:18;;;;;;;19.35;10.40;;;13.30;55.50;;;;;;5058584;28;20028;-35
2022/03/24 09:40:45;;;;;;;22.33;11.63;;;13.60;56.70;;;;;;5060279;28;20206;-34
2022/03/24 09:43:15;;;;;;;22.05;11.13;;;13.70;52.70;;;;;;5055444;28;20044;-34
2022/03/24 09:45:42;;;;;;;22.60;11.60;;;13.70;52.80;;;;;;5059785;28;20086;-34
2022/03/24 09:48:10;;;;;;;21.48;10.63;;;13.50;51.50;;;;;;5058048;28;20132;-34
2022/03/24 09:50:37;;;;;;;21.30;10.98;;;13.70;50.00;;;;;;5064732;28;20032;-34
2022/03/24 09:53:03;;;;;;;21.15;10.70;;;13.90;49.10;;;;;;5062146;28;20055;-34
2022/03/24 09:55:32;;;;;;;23.73;10.98;;;13.70;48.50;;;;;;5060762;28;20075;-33
2022/03/24 09:57:59;;;;;;;17.27;10.30;;;13.70;49.10;;;;;;5058220;28;20032;-34
2022/03/24 10:00:25;;;;;;;22.15;10.65;;;14.00;50.20;;;;;;5057969;28;20641;-34
2022/03/24 10:03:17;;;;;;;20.50;11.38;;;14.30;51.20;;;;;;5058933;28;20424;-34
2022/03/24 10:05:58;;;;;;;17.52;10.65;;;14.40;49.10;;;;;;5058889;28;20481;-34
2022/03/24 10:08:24;;;;;;;20.90;10.15;;;14.50;48.80;;;;;;5060302;28;20032;-33
2022/03/24 10:10:55;;;;;;;22.67;10.75;;;14.80;47.80;;;;;;5056663;28;20025;-34
2022/03/24 10:13:40;;;;;;;20.75;10.95;;;15.10;50.10;;;;;;5059122;28;20280;-34
2022/03/24 10:16:06;;;;;;;20.73;11.30;;;14.90;49.60;;;;;;5060307;28;20028;-34
2022/03/24 10:18:32;;;;;;;20.63;11.07;;;14.80;47.80;;;;;;5060459;28;20032;-34
2022/03/24 10:21:01;;;;;;;20.15;11.25;;;14.90;46.50;;;;;;5061289;28;20378;-33
2022/03/24 10:23:26;;;;;;;19.02;10.68;;;14.90;46.50;;;;;;5060154;28;20059;-34
2022/03/24 10:25:52;;;;;;;18.42;11.13;;;15.00;48.00;;;;;;5057450;28;20020;-35
2022/03/24 10:28:19;;;;;;;19.95;11.05;;;15.10;45.30;;;;;;5058768;28;20044;-39
2022/03/24 10:30:55;;;;;;;18.23;9.55;;;15.60;44.00;;;;;;5059655;28;20025;-34
2022/03/24 10:33:34;;;;;;;15.98;10.05;;;15.80;43.20;;;;;;5058376;28;20210;-34
2022/03/24 10:36:19;;;;;;;17.08;10.25;;;15.90;41.40;;;;;;5056994;28;20801;-34
2022/03/24 10:39:04;;;;;;;14.88;9.15;;;15.90;41.10;;;;;;5059298;28;20029;-34
2022/03/24 10:41:35;;;;;;;17.92;8.88;;;16.10;41.90;;;;;;5060701;28;20557;-34
2022/03/24 10:44:12;;;;;;;16.20;9.40;;;16.30;41.20;;;;;;5059815;28;20056;-34
2022/03/24 10:46:42;;;;;;;17.30;9.63;;;16.30;37.60;;;;;;5057668;28;20037;-33
2022/03/24 10:49:15;;;;;;;19.33;9.38;;;16.40;38.40;;;;;;5058497;28;20784;-33
2022/03/24 10:51:44;;;;;;;14.80;9.32;;;16.40;38.80;;;;;;5061515;28;20027;-33
2022/03/24 10:54:13;;;;;;;16.77;9.95;;;16.50;38.90;;;;;;5058619;28;20481;-34
2022/03/24 10:56:43;;;;;;;14.38;8.45;;;16.70;37.80;;;;;;5056855;28;20028;-33
2022/03/24 10:59:10;;;;;;;13.60;7.97;;;16.70;36.10;;;;;;5058219;28;20111;-34
2022/03/24 11:01:36;;;;;;;16.02;9.02;;;16.70;37.10;;;;;;5062072;28;20098;-36
2022/03/24 11:04:01;;;;;;;17.20;9.65;;;16.90;40.20;;;;;;5064737;28;20032;-34
2022/03/24 11:06:27;;;;;;;16.23;8.32;;;16.90;36.80;;;;;;5057962;28;20254;-34
2022/03/24 11:08:55;;;;;;;13.25;7.82;;;16.90;36.00;;;;;;5060204;28;20078;-34
2022/03/24 11:11:21;;;;;;;12.80;8.07;;;16.80;34.60;;;;;;5057218;28;20041;-33
2022/03/24 11:13:53;;;;;;;13.48;8.05;;;16.80;34.40;;;;;;5056794;28;20036;-33
2022/03/24 11:16:22;;;;;;;12.70;8.98;;;16.90;35.80;;;;;;5056991;28;20041;-34
2022/03/24 11:18:49;;;;;;;12.18;8.10;;;16.90;36.30;;;;;;5056775;28;21336;-34
2022/03/24 11:21:43;;;;;;;13.73;7.50;;;16.90;35.00;;;;;;5054376;28;20025;-34
2022/03/24 11:24:09;;;;;;;14.30;8.73;;;17.00;34.10;;;;;;5059779;28;20120;-34
2022/03/24 11:26:35;;;;;;;15.32;8.57;;;17.10;35.80;;;;;;5057348;28;20032;-34
2022/03/24 11:29:02;;;;;;;14.90;7.40;;;17.00;34.00;;;;;;5058993;28;20146;-34
2022/03/24 11:31:28;;;;;;;17.58;8.88;;;17.10;35.60;;;;;;5057521;28;20135;-33
2022/03/24 11:33:58;;;;;;;12.10;7.55;;;17.10;35.80;;;;;;5057285;28;20028;-35
2022/03/24 11:36:24;;;;;;;12.77;7.28;;;17.00;32.00;;;;;;5057615;28;20032;-37
2022/03/24 11:38:53;;;;;;;11.75;6.45;;;17.10;34.00;;;;;;5056261;28;20033;-33
2022/03/24 11:41:37;;;;;;;12.68;7.32;;;17.20;33.70;;;;;;5055555;28;20100;-33
2022/03/24 11:44:06;;;;;;;12.40;6.95;;;17.30;35.60;;;;;;5056094;28;20028;-35
2022/03/24 11:46:40;;;;;;;8.77;6.25;;;17.20;34.00;;;;;;5085459;27;20028;-33
2022/03/24 11:49:21;;;;;;;10.13;6.53;;;17.30;35.00;;;;;;5057324;28;22056;-33
2022/03/24 11:52:09;;;;;;;12.85;7.25;;;17.50;31.70;;;;;;5056147;28;20055;-34
2022/03/24 11:54:38;;;;;;;7.90;6.30;;;17.40;32.40;;;;;;5051783;28;20521;-34
2022/03/24 11:57:21;;;;;;;;;;;17.30;32.00;;;;;;5056687;28;20027;-33
2022/03/24 11:59:50;;;;;;;12.80;7.47;;;17.30;32.50;;;;;;5056039;28;20473;-34
2022/03/24 12:02:18;;;;;;;10.65;7.68;;;17.20;30.90;;;;;;5056548;28;20563;-34
2022/03/24 12:04:56;;;;;;;15.27;9.10;;;17.10;33.20;;;;;;5055021;28;20024;-34
2022/03/24 12:07:22;;;;;;;17.02;7.57;;;17.40;33.50;;;;;;5055938;28;20024;-34
2022/03/24 12:10:00;;;;;;;13.93;8.90;;;17.30;33.60;;;;;;5058850;28;20029;-34
2022/03/24 12:12:27;;;;;;;15.35;8.10;;;17.20;31.80;;;;;;5070525;28;20047;-34
2022/03/24 12:14:54;;;;;;;14.50;9.25;;;17.10;33.50;;;;;;5054474;28;20025;-36
2022/03/24 12:17:33;;;;;;;16.45;9.77;;;17.30;36.00;;;;;;5059409;28;20035;-34
2022/03/24 12:20:20;;;;;;;13.90;8.70;;;17.40;34.90;;;;;;5056903;28;20020;-33
2022/03/24 12:22:47;;;;;;;15.52;9.23;;;17.20;34.30;;;;;;5057185;28;20062;-34
2022/03/24 12:25:12;;;;;;;15.82;9.43;;;17.40;36.10;;;;;;5054499;28;20031;-36
2022/03/24 12:28:00;;;;;;;16.65;8.70;;;17.40;35.70;;;;;;5058688;28;20027;-34
2022/03/24 12:30:39;;;;;;;14.43;7.85;;;17.20;32.90;;;;;;5058738;28;20082;-35
2022/03/24 12:33:07;;;;;;;15.13;8.43;;;17.20;32.60;;;;;;5058314;28;20041;-34
2022/03/24 12:35:49;;;;;;;12.35;8.32;;;17.20;33.50;;;;;;5055589;28;20107;-33
2022/03/24 12:38:27;;;;;;;13.10;8.18;;;17.40;33.40;;;;;;5055793;28;20115;-35
2022/03/24 12:41:09;;;;;;;13.93;7.93;;;17.40;32.30;;;;;;5056376;28;20028;-34
2022/03/24 12:44:02;;;;;;;10.20;7.20;;;17.20;31.40;;;;;;5054841;28;20458;-34
2022/03/24 12:46:35;;;;;;;11.00;7.28;;;17.40;30.30;;;;;;5053091;28;20829;-34